Time;durP1;ratioP1;P1;durP2;ratioP2;P2;SDS_P1;SDS_P2;PMS_P1;PMS_P2;Temp;Humidity;BMP_temperature;BMP_pressure;BME280_temperature;BME280_humidity;BME280_pressure;Samples;Min_cycle;Max_cycle;Signal;HPM_P1;HPM_P2
2021/06/13 00:00:23;;;;;;;4.80;4.60;;;;;;;12.63;71.89;102189.97;4403760;32;20479;-74
2021/06/13 00:02:48;;;;;;;4.53;4.32;;;;;;;12.31;71.64;102131.44;4396717;32;20158;-73
2021/06/13 00:05:15;;;;;;;4.75;4.53;;;;;;;12.62;71.84;102185.59;4400031;32;20478;-75
2021/06/13 00:07:40;;;;;;;4.60;4.40;;;;;;;12.59;71.62;102185.75;4395801;32;20083;-73
2021/06/13 00:10:06;;;;;;;4.50;4.30;;;;;;;12.29;71.40;102129.81;4396169;32;21143;-74
2021/06/13 00:12:38;;;;;;;4.32;4.12;;;;;;;12.52;72.30;102177.19;4398936;32;20191;-74
2021/06/13 00:15:05;;;;;;;4.57;4.37;;;;;;;11.15;72.26;101953.16;4398507;32;20210;-74
2021/06/13 00:17:30;;;;;;;4.35;4.15;;;;;;;12.35;72.17;102162.00;4397506;32;20628;-74
2021/06/13 00:19:56;;;;;;;4.53;4.32;;;;;;;12.43;71.94;102180.16;4395398;32;20410;-74
2021/06/13 00:22:21;;;;;;;4.68;4.47;;;;;;;11.82;72.10;102080.53;4398702;32;20080;-73
2021/06/13 00:24:46;;;;;;;4.50;4.30;;;;;;;12.17;72.44;102160.06;4402769;32;20087;-73
2021/06/13 00:27:12;;;;;;;4.70;4.50;;;;;;;11.27;72.21;102000.97;4397711;32;20597;-74
2021/06/13 00:29:37;;;;;;;4.43;4.22;;;;;;;12.24;72.35;102187.84;4396720;32;20084;-74
2021/06/13 00:32:03;;;;;;;4.40;4.20;;;;;;;12.03;72.31;102157.00;4398587;32;20088;-74
2021/06/13 00:34:28;;;;;;;4.80;4.60;;;;;;;12.01;73.00;102164.09;4396758;32;20099;-74
2021/06/13 00:36:54;;;;;;;4.47;4.12;;;;;;;12.12;72.94;102185.66;4396900;32;20085;-74
2021/06/13 00:39:19;;;;;;;4.50;4.30;;;;;;;12.14;73.44;102191.72;4394852;32;20237;-73
2021/06/13 00:41:45;;;;;;;4.72;4.43;;;;;;;11.78;72.64;102134.16;4400458;32;20521;-74
2021/06/13 00:44:16;;;;;;;4.47;4.28;;;;;;;12.05;73.40;102189.44;4394559;32;20077;-73
2021/06/13 00:46:41;;;;;;;4.40;4.20;;;;;;;11.24;73.88;102058.88;4399069;32;20061;-75
2021/06/13 00:49:08;;;;;;;4.28;4.07;;;;;;;11.17;73.15;102079.25;4400248;32;20589;-74
2021/06/13 00:51:36;;;;;;;4.40;4.20;;;;;;;10.89;73.63;102001.31;4400261;32;20531;-74
2021/06/13 00:54:01;;;;;;;4.87;4.68;;;;;;;10.01;73.43;101871.13;4414218;32;20141;-74
2021/06/13 00:56:26;;;;;;;4.47;4.28;;;;;;;9.22;74.29;101814.94;4400801;32;20068;-73
2021/06/13 00:58:53;;;;;;;4.75;4.55;;;;;;;9.85;74.31;101874.22;4399856;32;20575;-74
2021/06/13 01:01:18;;;;;;;4.55;4.35;;;;;;;11.03;74.20;102084.09;4394160;32;20064;-74
2021/06/13 01:03:45;;;;;;;4.78;4.37;;;;;;;11.73;74.40;102199.22;4402827;32;20068;-74
2021/06/13 01:06:12;;;;;;;4.15;3.95;;;;;;;11.53;74.96;102171.81;4399219;32;20069;-73
2021/06/13 01:08:45;;;;;;;4.32;4.12;;;;;;;11.51;74.34;102173.63;4399385;32;20091;-73
2021/06/13 01:11:54;;;;;;;4.65;4.45;;;;;;;11.56;74.93;102199.75;4392887;32;20082;-73
2021/06/13 01:14:36;;;;;;;4.55;4.35;;;;;;;10.60;74.56;102101.16;4387637;32;20320;-74
2021/06/13 01:17:27;;;;;;;4.53;4.32;;;;;;;11.48;74.96;102199.16;4393649;32;20199;-73
2021/06/13 01:20:04;;;;;;;4.40;4.20;;;;;;;11.46;75.65;102199.19;4417441;32;20211;-73
2021/06/13 01:22:37;;;;;;;4.70;4.50;;;;;;;11.09;75.96;102150.41;4423479;32;20424;-75
2021/06/13 01:25:06;;;;;;;;;;;;;;;11.39;75.87;102210.81;4407704;32;20142;-74
2021/06/13 01:27:50;;;;;;;4.30;4.10;;;;;;;11.34;75.68;102210.94;4407483;32;20259;-72
2021/06/13 01:30:16;;;;;;;4.22;4.03;;;;;;;11.33;75.98;102201.34;4419451;32;21026;-74
2021/06/13 01:32:41;;;;;;;4.30;4.10;;;;;;;10.93;75.52;102133.41;4390349;32;20092;-74
2021/06/13 01:35:22;;;;;;;4.70;4.50;;;;;;;11.34;76.27;102202.22;4392238;32;20463;-75
2021/06/13 01:37:51;;;;;;;4.40;4.20;;;;;;;10.91;76.02;102151.00;4398946;32;20632;-75
2021/06/13 01:40:16;;;;;;;4.32;4.12;;;;;;;11.01;76.35;102183.94;4397276;32;20063;-74
2021/06/13 01:42:46;;;;;;;4.55;4.35;;;;;;;10.79;76.15;102152.22;4394867;32;20174;-74
2021/06/13 01:45:14;;;;;;;4.43;4.22;;;;;;;11.09;76.51;102217.88;4398072;32;20079;-73
2021/06/13 01:47:39;;;;;;;4.60;4.40;;;;;;;10.46;77.58;102122.56;4395981;32;20085;-74
2021/06/13 01:50:05;;;;;;;4.30;4.10;;;;;;;10.68;77.27;102160.41;4412051;32;20155;-73
2021/06/13 01:52:31;;;;;;;4.40;4.20;;;;;;;10.80;77.31;102181.97;4395111;32;20143;-73
2021/06/13 01:54:56;;;;;;;4.40;4.20;;;;;;;11.00;77.52;102205.00;4411615;32;20179;-73
2021/06/13 01:57:25;;;;;;;4.78;4.57;;;;;;;10.77;77.57;102186.41;4392443;32;20547;-74
2021/06/13 01:59:56;;;;;;;4.40;4.20;;;;;;;10.94;77.53;102209.56;4406545;32;20617;-73
2021/06/13 02:02:22;;;;;;;4.50;4.30;;;;;;;10.76;76.99;102179.44;4402445;32;20184;-73
2021/06/13 02:04:48;;;;;;;4.20;4.00;;;;;;;10.40;77.64;102120.09;4420975;27;20353;-74
2021/06/13 02:07:13;;;;;;;4.40;4.20;;;;;;;9.98;77.54;102051.28;4396205;32;20414;-73
2021/06/13 02:09:39;;;;;;;4.30;4.10;;;;;;;10.83;78.62;102197.62;4407641;32;20064;-74
2021/06/13 02:12:05;;;;;;;4.60;4.40;;;;;;;10.78;78.31;102203.88;4409884;32;20061;-73
2021/06/13 02:14:30;;;;;;;4.95;4.75;;;;;;;8.33;77.86;101818.12;4434048;26;20100;-74
2021/06/13 02:16:56;;;;;;;5.07;4.87;;;;;;;10.75;78.97;102211.00;4416317;32;20637;-73
2021/06/13 02:19:25;;;;;;;4.43;4.22;;;;;;;10.40;77.69;102167.34;4430088;32;20202;-74
2021/06/13 02:21:56;;;;;;;4.32;4.12;;;;;;;10.04;78.98;102117.56;4417959;32;20717;-74
2021/06/13 02:24:32;;;;;;;4.97;4.78;;;;;;;10.68;78.07;102206.81;4416838;32;22153;-74
2021/06/13 02:27:00;;;;;;;4.20;4.00;;;;;;;10.40;78.26;102172.59;4400005;32;20092;-73
2021/06/13 02:29:26;;;;;;;4.20;4.00;;;;;;;10.49;78.76;102191.56;4401864;32;20369;-74
2021/06/13 02:31:52;;;;;;;4.30;4.10;;;;;;;10.57;78.96;102207.13;4400504;32;20085;-74
2021/06/13 02:34:20;;;;;;;4.37;4.18;;;;;;;10.36;78.46;102183.19;4401104;32;20130;-74
2021/06/13 02:36:47;;;;;;;4.20;4.00;;;;;;;10.57;78.91;102204.50;4413156;32;20065;-73
2021/06/13 02:39:12;;;;;;;4.45;4.25;;;;;;;10.58;78.55;102209.72;4400449;32;20584;-74
2021/06/13 02:41:37;;;;;;;4.40;4.20;;;;;;;9.49;78.56;102031.62;4402818;32;20068;-74
2021/06/13 02:44:05;;;;;;;4.30;4.10;;;;;;;10.42;79.42;102204.91;4401068;32;20605;-73
2021/06/13 02:46:34;;;;;;;4.20;4.00;;;;;;;10.47;79.28;102221.41;4403233;32;20072;-73
2021/06/13 02:49:09;;;;;;;4.43;4.22;;;;;;;9.60;80.07;102086.38;4400157;32;20069;-75
2021/06/13 02:51:36;;;;;;;4.50;4.30;;;;;;;10.23;79.48;102194.03;4403312;32;20821;-73
2021/06/13 02:54:03;;;;;;;4.43;4.22;;;;;;;10.24;80.05;102196.59;4400115;32;20087;-74
2021/06/13 02:56:42;;;;;;;4.43;4.22;;;;;;;10.36;79.45;102222.56;4404977;32;20661;-73
2021/06/13 02:59:29;;;;;;;4.43;4.22;;;;;;;10.40;79.92;102227.69;4394080;32;20490;-73
2021/06/13 03:01:54;;;;;;;4.20;4.00;;;;;;;10.08;80.14;102169.03;4417375;32;20060;-73
2021/06/13 03:04:21;;;;;;;4.45;4.25;;;;;;;10.22;79.60;102194.91;4401026;32;20065;-73
2021/06/13 03:06:50;;;;;;;4.10;3.90;;;;;;;10.36;80.68;102212.06;4399888;32;20336;-74
2021/06/13 03:09:18;;;;;;;4.30;4.10;;;;;;;10.16;80.04;102183.69;4396655;32;20588;-74
2021/06/13 03:11:43;;;;;;;4.60;4.40;;;;;;;10.33;80.34;102212.13;4413494;32;20092;-73
2021/06/13 03:14:09;;;;;;;4.55;4.35;;;;;;;10.31;80.50;102215.69;4401073;32;20061;-74
2021/06/13 03:16:34;;;;;;;4.20;4.00;;;;;;;10.24;79.44;102207.06;4406144;32;20731;-73
2021/06/13 03:18:59;;;;;;;4.70;4.50;;;;;;;10.27;80.45;102230.63;4401325;32;20076;-73
2021/06/13 03:21:25;;;;;;;4.53;4.32;;;;;;;10.19;80.87;102222.09;4401785;32;20072;-70
2021/06/13 03:23:50;;;;;;;4.30;4.10;;;;;;;10.14;80.00;102222.22;4398841;32;20084;-70
2021/06/13 03:26:16;;;;;;;4.55;4.35;;;;;;;10.28;79.79;102237.59;4397924;32;20069;-70
2021/06/13 03:28:41;;;;;;;4.30;4.10;;;;;;;10.18;81.21;102242.22;4402529;32;20859;-71
2021/06/13 03:31:09;;;;;;;4.70;4.40;;;;;;;10.15;81.61;102234.44;4400144;32;20080;-70
2021/06/13 03:33:35;;;;;;;4.53;4.20;;;;;;;10.13;82.02;102244.09;4411984;32;20060;-70
2021/06/13 03:36:00;;;;;;;4.10;3.90;;;;;;;10.19;81.16;102248.34;4401259;32;20083;-71
2021/06/13 03:38:26;;;;;;;4.50;4.30;;;;;;;10.23;81.47;102249.97;4404933;32;20060;-70
2021/06/13 03:40:52;;;;;;;4.00;3.80;;;;;;;10.25;81.61;102257.81;4400529;32;20230;-70
2021/06/13 03:43:18;;;;;;;4.05;3.85;;;;;;;10.29;80.61;102260.31;4403637;32;20676;-70
2021/06/13 03:45:43;;;;;;;4.47;4.28;;;;;;;10.34;81.44;102262.84;4402615;32;20076;-70
2021/06/13 03:48:09;;;;;;;4.03;3.83;;;;;;;10.38;81.02;102262.75;4410222;32;20079;-70
2021/06/13 03:50:34;;;;;;;4.50;4.30;;;;;;;10.45;80.22;102266.06;4396431;32;20122;-70
2021/06/13 03:53:01;;;;;;;4.10;3.90;;;;;;;10.51;80.62;102265.03;4404165;32;20581;-70
2021/06/13 03:55:29;;;;;;;4.10;3.90;;;;;;;10.57;79.99;102278.00;4402675;32;20131;-69
2021/06/13 03:58:01;;;;;;;3.80;3.70;;;;;;;10.61;79.56;102271.75;4398447;32;20092;-70
2021/06/13 04:00:32;;;;;;;4.82;4.62;;;;;;;10.67;80.15;102265.47;4400892;32;20609;-70
2021/06/13 04:02:57;;;;;;;3.90;3.80;;;;;;;10.74;78.83;102275.78;4398746;32;20080;-70
2021/06/13 04:05:23;;;;;;;4.22;4.03;;;;;;;10.83;79.50;102287.78;4402119;32;20075;-69
2021/06/13 04:07:49;;;;;;;4.15;3.95;;;;;;;10.95;78.42;102274.31;4402022;32;20084;-70
2021/06/13 04:10:14;;;;;;;4.22;4.03;;;;;;;11.34;78.26;102260.03;4404213;32;20940;-70
2021/06/13 04:12:40;;;;;;;4.20;4.00;;;;;;;12.20;76.14;102246.78;4396759;32;20117;-69
2021/06/13 04:15:09;;;;;;;4.30;4.10;;;;;;;13.13;72.55;102261.00;4402838;32;20087;-70
2021/06/13 04:17:34;;;;;;;4.37;4.18;;;;;;;13.59;69.27;102217.94;4396420;32;20492;-70
2021/06/13 04:20:00;;;;;;;4.90;4.70;;;;;;;14.25;67.45;102281.19;4403297;32;20066;-69
2021/06/13 04:22:25;;;;;;;4.40;4.20;;;;;;;15.02;65.84;102275.25;4396641;32;20319;-70
2021/06/13 04:24:53;;;;;;;4.53;4.32;;;;;;;14.97;63.46;102198.75;4402120;32;20084;-70
2021/06/13 04:27:20;;;;;;;5.30;5.00;;;;;;;15.92;62.92;102272.75;4394189;32;20413;-70
2021/06/13 04:29:46;;;;;;;4.62;4.43;;;;;;;16.01;61.31;102264.34;4403459;32;20491;-70
2021/06/13 04:32:11;;;;;;;5.50;5.20;;;;;;;16.26;58.80;102287.81;4394451;32;20528;-70
2021/06/13 04:34:37;;;;;;;4.90;4.70;;;;;;;16.38;59.98;102281.03;4400279;32;20132;-70
2021/06/13 04:37:03;;;;;;;5.03;4.80;;;;;;;17.02;58.88;102287.41;4391350;32;20578;-71
2021/06/13 04:39:28;;;;;;;5.20;5.00;;;;;;;17.68;57.03;102282.88;4398596;32;20171;-70
2021/06/13 04:41:56;;;;;;;5.20;5.00;;;;;;;17.32;55.11;102286.69;4399572;32;20538;-70
2021/06/13 04:44:21;;;;;;;4.95;4.75;;;;;;;17.41;55.19;102290.63;4391323;32;20096;-70
2021/06/13 04:46:47;;;;;;;5.37;5.07;;;;;;;17.57;54.99;102288.81;4391896;32;20633;-70
2021/06/13 04:49:12;;;;;;;5.12;4.93;;;;;;;17.68;55.06;102294.37;4397584;32;20249;-70
2021/06/13 04:51:40;;;;;;;5.12;4.93;;;;;;;17.72;53.52;102141.03;4393676;32;20087;-71
2021/06/13 04:54:25;;;;;;;5.07;4.87;;;;;;;18.65;52.36;102243.50;4391431;32;20439;-70
2021/06/13 04:57:10;;;;;;;5.60;5.30;;;;;;;18.49;50.83;102301.22;4407847;32;20079;-70
2021/06/13 04:59:39;;;;;;;5.50;5.20;;;;;;;18.39;52.50;102297.41;4422745;32;20806;-71
2021/06/13 05:02:07;;;;;;;6.00;5.70;;;;;;;18.13;52.38;102305.97;4414085;32;20088;-70
2021/06/13 05:04:32;;;;;;;5.62;5.32;;;;;;;17.50;54.23;102306.88;4397466;32;20077;-70
2021/06/13 05:07:03;;;;;;;6.78;6.22;;;;;;;17.27;54.37;102309.94;4404728;32;20606;-70
2021/06/13 05:09:28;;;;;;;5.32;5.07;;;;;;;18.25;53.23;102311.53;4398511;32;20167;-70
2021/06/13 05:11:53;;;;;;;5.87;5.57;;;;;;;17.92;53.26;102289.50;4407147;32;20073;-70
2021/06/13 05:14:19;;;;;;;6.03;5.62;;;;;;;18.83;51.23;102304.53;4396618;32;20089;-71
2021/06/13 05:16:44;;;;;;;5.20;5.00;;;;;;;18.38;51.72;102322.25;4404791;32;20067;-70
2021/06/13 05:19:10;;;;;;;5.70;5.40;;;;;;;18.12;52.04;102284.78;4399909;32;20388;-70
2021/06/13 05:21:35;;;;;;;6.12;5.82;;;;;;;17.63;53.92;102314.16;4403957;32;20078;-70
2021/06/13 05:24:07;;;;;;;5.80;5.43;;;;;;;17.72;54.36;102316.28;4409095;32;20665;-70
2021/06/13 05:26:32;;;;;;;5.43;5.12;;;;;;;18.31;54.09;102327.09;4399029;32;20684;-70
2021/06/13 05:28:58;;;;;;;5.60;5.30;;;;;;;18.87;52.51;102319.34;4399920;32;20293;-70
2021/06/13 05:31:26;;;;;;;6.35;5.85;;;;;;;18.41;52.66;102319.44;4402714;32;20606;-70
2021/06/13 05:33:52;;;;;;;5.50;5.30;;;;;;;19.49;50.00;102319.88;4409568;32;20079;-71
2021/06/13 05:36:18;;;;;;;5.40;5.15;;;;;;;20.76;46.74;102316.84;4405754;32;20083;-70
2021/06/13 05:38:44;;;;;;;5.78;5.47;;;;;;;21.28;44.65;102324.69;4407527;32;20079;-71
2021/06/13 05:41:13;;;;;;;5.50;5.20;;;;;;;21.58;44.21;102325.28;4398273;32;20535;-69
2021/06/13 05:43:39;;;;;;;5.37;5.18;;;;;;;21.99;41.87;102340.06;4407353;32;20696;-70
2021/06/13 05:46:04;;;;;;;5.57;5.28;;;;;;;22.07;42.25;102332.31;4409168;32;20077;-69
2021/06/13 05:48:30;;;;;;;6.45;5.95;;;;;;;21.07;41.74;102233.66;4404827;32;20068;-71
2021/06/13 05:50:55;;;;;;;5.87;5.47;;;;;;;21.67;43.48;102332.63;4401044;32;20661;-70
2021/06/13 05:53:20;;;;;;;6.03;5.62;;;;;;;21.99;43.33;102335.59;4403075;32;20087;-70
2021/06/13 05:55:49;;;;;;;5.60;5.30;;;;;;;21.95;41.11;102335.91;4393240;32;20894;-70
2021/06/13 05:58:15;;;;;;;5.75;5.45;;;;;;;21.54;42.50;102338.00;4407978;32;20087;-70
2021/06/13 06:00:40;;;;;;;7.18;6.75;;;;;;;21.73;41.72;102336.66;4398412;32;20069;-70
2021/06/13 06:03:06;;;;;;;6.20;5.82;;;;;;;21.69;42.74;102333.38;4401877;32;20080;-70
2021/06/13 06:05:34;;;;;;;5.62;5.32;;;;;;;21.71;40.36;102300.22;4413896;32;20072;-70
2021/06/13 06:08:01;;;;;;;5.80;5.50;;;;;;;22.24;39.56;102315.88;4407675;32;20577;-69
2021/06/13 06:10:27;;;;;;;6.30;5.90;;;;;;;22.97;38.60;102351.28;4403002;32;20076;-70
2021/06/13 06:12:54;;;;;;;5.80;5.50;;;;;;;22.65;38.14;102338.63;4406221;32;20121;-69
2021/06/13 06:15:19;;;;;;;5.50;5.30;;;;;;;22.56;39.33;102352.69;4399430;32;20083;-68
2021/06/13 06:17:45;;;;;;;5.40;5.10;;;;;;;22.78;38.68;102353.72;4400063;32;20430;-70
2021/06/13 06:20:11;;;;;;;5.72;5.43;;;;;;;22.44;38.95;102359.00;4408208;32;20072;-69
2021/06/13 06:22:36;;;;;;;6.60;6.12;;;;;;;22.80;38.10;102354.47;4399706;32;20087;-70
2021/06/13 06:25:03;;;;;;;5.28;5.07;;;;;;;21.73;37.67;102361.56;4405469;32;20523;-70
2021/06/13 06:27:29;;;;;;;5.87;5.57;;;;;;;21.14;39.65;102364.03;4402058;32;20087;-70
2021/06/13 06:29:54;;;;;;;5.30;5.05;;;;;;;20.86;41.20;102364.12;4404622;32;20060;-70
2021/06/13 06:32:20;;;;;;;5.68;5.37;;;;;;;20.75;41.81;102364.03;4395813;32;20071;-70
2021/06/13 06:34:45;;;;;;;5.50;5.20;;;;;;;20.26;43.93;102375.31;4406885;32;20566;-70
2021/06/13 06:37:10;;;;;;;6.03;5.72;;;;;;;19.00;45.64;102346.88;4399889;32;20096;-70
2021/06/13 06:39:36;;;;;;;5.68;5.37;;;;;;;19.58;44.67;102374.34;4403807;32;20073;-70
2021/06/13 06:42:07;;;;;;;5.45;5.15;;;;;;;17.94;45.26;102250.41;4401120;32;20364;-70
2021/06/13 06:44:32;;;;;;;6.25;5.95;;;;;;;18.87;44.53;102373.41;4407720;32;20660;-69
2021/06/13 06:47:02;;;;;;;5.40;5.20;;;;;;;18.39;44.97;102286.78;4412918;32;20472;-70
2021/06/13 06:49:36;;;;;;;5.55;5.25;;;;;;;18.53;45.00;102355.94;4404244;32;20073;-70
2021/06/13 06:52:03;;;;;;;5.35;5.05;;;;;;;18.72;47.57;102377.81;4400221;32;20120;-70
2021/06/13 06:54:29;;;;;;;5.45;5.25;;;;;;;18.33;46.30;102373.06;4411496;32;20084;-69
2021/06/13 06:56:54;;;;;;;5.87;5.35;;;;;;;17.53;47.23;102261.56;4406542;32;20115;-69
2021/06/13 06:59:19;;;;;;;5.10;4.90;;;;;;;17.90;47.80;102391.44;4398224;32;20657;-72
2021/06/13 07:01:45;;;;;;;5.55;5.20;;;;;;;18.20;46.64;102394.19;4398798;32;20069;-69
2021/06/13 07:04:10;;;;;;;5.60;5.30;;;;;;;18.05;46.71;102384.41;4400393;32;20068;-69
2021/06/13 07:06:38;;;;;;;5.20;4.95;;;;;;;17.94;44.48;102398.28;4392108;32;20064;-69
2021/06/13 07:09:06;;;;;;;5.65;5.25;;;;;;;18.09;45.23;102405.41;4401620;32;20748;-70
2021/06/13 07:11:32;;;;;;;5.30;5.10;;;;;;;17.77;45.87;102424.91;4402930;32;20115;-70
2021/06/13 07:13:57;;;;;;;5.20;5.00;;;;;;;17.50;46.37;102407.75;4397844;32;20095;-70
2021/06/13 07:16:23;;;;;;;5.10;4.90;;;;;;;17.83;45.96;102411.28;4403204;32;20507;-69
2021/06/13 07:18:49;;;;;;;5.57;5.28;;;;;;;17.90;45.59;102402.94;4397697;32;20097;-69
2021/06/13 07:21:14;;;;;;;5.40;5.10;;;;;;;17.54;46.73;102398.69;4402182;32;20194;-69
2021/06/13 07:23:42;;;;;;;5.10;4.90;;;;;;;17.34;47.57;102407.72;4388792;32;20470;-75
2021/06/13 07:26:08;;;;;;;5.00;4.80;;;;;;;17.43;47.35;102414.31;4396625;32;20569;-71
2021/06/13 07:28:34;;;;;;;5.45;5.15;;;;;;;17.46;46.48;102384.09;4398171;32;20068;-71
2021/06/13 07:31:02;;;;;;;5.50;5.25;;;;;;;16.18;46.71;102136.34;4395505;32;20597;-72
2021/06/13 07:33:28;;;;;;;5.18;4.95;;;;;;;17.24;46.57;102419.75;4400518;32;20666;-71
2021/06/13 07:35:53;;;;;;;6.05;5.75;;;;;;;17.28;47.11;102410.69;4394934;32;20072;-73
2021/06/13 07:38:19;;;;;;;5.22;4.93;;;;;;;17.71;46.00;102444.69;4401763;32;20959;-72
2021/06/13 07:40:44;;;;;;;5.10;4.90;;;;;;;16.92;46.52;102371.06;4399440;32;20337;-72
2021/06/13 07:43:10;;;;;;;5.07;4.87;;;;;;;17.05;45.57;102419.84;4395747;32;20318;-73
2021/06/13 07:45:44;;;;;;;5.20;5.00;;;;;;;17.60;45.96;102416.09;4391057;32;20072;-71
2021/06/13 07:48:13;;;;;;;5.00;4.80;;;;;;;16.80;45.98;102270.87;4399744;32;20189;-71
2021/06/13 07:50:41;;;;;;;4.80;4.60;;;;;;;17.61;46.74;102404.50;4401043;32;20080;-72
2021/06/13 07:53:09;;;;;;;5.18;4.90;;;;;;;16.29;46.24;102221.41;4409393;32;20977;-73
2021/06/13 07:55:35;;;;;;;4.90;4.70;;;;;;;17.41;46.25;102402.09;4398313;32;20071;-73
2021/06/13 07:58:01;;;;;;;4.90;4.70;;;;;;;17.26;45.29;102375.44;4403348;32;20169;-73
2021/06/13 08:00:26;;;;;;;5.07;4.87;;;;;;;18.05;45.33;102419.81;4399952;32;20568;-73
2021/06/13 08:02:52;;;;;;;6.12;5.68;;;;;;;18.27;45.05;102429.22;4403770;32;20091;-74
2021/06/13 08:05:30;;;;;;;4.78;4.57;;;;;;;18.31;43.56;102430.75;4406751;32;20079;-72
2021/06/13 08:07:57;;;;;;;5.10;4.90;;;;;;;17.66;43.84;102367.94;4408678;32;20148;-72
2021/06/13 08:10:22;;;;;;;4.90;4.70;;;;;;;17.72;44.72;102438.41;4404936;32;20152;-71
2021/06/13 08:12:50;;;;;;;5.85;5.45;;;;;;;17.38;45.20;102343.84;4402239;32;20075;-69
2021/06/13 08:15:19;;;;;;;6.60;6.30;;;;;;;17.79;44.99;102429.19;4396755;32;20073;-71
2021/06/13 08:17:44;;;;;;;5.43;5.12;;;;;;;17.87;45.82;102429.66;4394640;32;20306;-71
2021/06/13 08:20:10;;;;;;;4.90;4.70;;;;;;;17.57;44.34;102386.19;4407556;32;20087;-71
2021/06/13 08:22:35;;;;;;;4.90;4.70;;;;;;;17.76;43.99;102432.03;4389457;32;20110;-71
2021/06/13 08:25:01;;;;;;;4.80;4.60;;;;;;;18.02;44.84;102424.41;4399064;32;20664;-71
2021/06/13 08:27:27;;;;;;;5.10;4.90;;;;;;;18.09;43.33;102436.44;4392996;32;20068;-71
2021/06/13 08:29:52;;;;;;;4.97;4.78;;;;;;;17.97;45.78;102400.78;4400816;32;20519;-71
2021/06/13 08:32:18;;;;;;;5.85;5.55;;;;;;;17.89;44.21;102425.12;4392381;32;20080;-70
2021/06/13 08:34:43;;;;;;;5.10;4.90;;;;;;;18.24;45.24;102430.25;4415862;32;20087;-70
2021/06/13 08:37:09;;;;;;;4.90;4.70;;;;;;;18.51;44.39;102419.81;4399129;32;20087;-73
2021/06/13 08:39:36;;;;;;;4.82;4.62;;;;;;;17.32;44.00;102321.19;4397870;32;20085;-70
2021/06/13 08:42:02;;;;;;;4.78;4.57;;;;;;;18.19;44.57;102432.31;4399812;32;20092;-71
2021/06/13 08:44:27;;;;;;;4.90;4.70;;;;;;;18.19;44.60;102434.13;4408364;32;20091;-71
2021/06/13 08:46:53;;;;;;;5.53;5.30;;;;;;;18.42;44.92;102435.44;4398334;32;20092;-71
2021/06/13 08:49:28;;;;;;;5.32;5.12;;;;;;;18.59;42.71;102426.50;4395896;32;20091;-71
2021/06/13 08:51:54;;;;;;;5.15;4.95;;;;;;;18.66;41.92;102430.50;4396556;32;20091;-70
2021/06/13 08:54:20;;;;;;;5.10;4.90;;;;;;;18.46;40.96;102355.44;4398853;32;20084;-71
2021/06/13 08:56:45;;;;;;;4.75;4.55;;;;;;;18.99;40.91;102425.03;4398022;32;20080;-71
2021/06/13 08:59:11;;;;;;;5.15;4.95;;;;;;;19.00;41.11;102405.44;4395169;32;20162;-71
2021/06/13 09:01:37;;;;;;;5.55;5.05;;;;;;;19.03;41.79;102423.88;4394953;32;20702;-70
2021/06/13 09:04:02;;;;;;;4.80;4.60;;;;;;;19.10;40.89;102414.59;4401440;32;20065;-70
2021/06/13 09:06:28;;;;;;;5.50;5.00;;;;;;;19.19;40.76;102422.97;4406335;32;20158;-72
2021/06/13 09:08:56;;;;;;;5.10;4.90;;;;;;;19.54;40.63;102420.75;4394666;32;20107;-72
2021/06/13 09:11:30;;;;;;;5.18;4.97;;;;;;;20.13;40.91;102415.25;4401128;32;20079;-71
2021/06/13 09:14:10;;;;;;;5.45;5.15;;;;;;;20.46;39.89;102414.81;4411501;32;20068;-73
2021/06/13 09:16:36;;;;;;;4.80;4.60;;;;;;;19.77;39.06;102376.72;4396483;32;20091;-70
2021/06/13 09:19:04;;;;;;;5.37;5.18;;;;;;;20.03;39.84;102414.16;4394022;32;20072;-71
2021/06/13 09:21:31;;;;;;;5.35;5.12;;;;;;;20.12;40.30;102416.19;4400561;32;20082;-71
2021/06/13 09:23:56;;;;;;;5.20;5.00;;;;;;;20.21;39.32;102409.44;4404737;32;20417;-70
2021/06/13 09:26:26;;;;;;;5.15;4.95;;;;;;;19.64;41.07;102389.91;4399434;32;20295;-71
2021/06/13 09:28:52;;;;;;;5.68;5.43;;;;;;;19.27;41.56;102416.19;4400503;32;20089;-71
2021/06/13 09:31:17;;;;;;;5.80;5.40;;;;;;;18.68;41.88;102420.63;4401432;32;20069;-70
2021/06/13 09:33:46;;;;;;;6.45;6.10;;;;;;;19.02;41.72;102419.50;4424375;32;20145;-74
2021/06/13 09:36:12;;;;;;;5.32;5.03;;;;;;;18.60;41.07;102370.59;4398256;32;20095;-72
2021/06/13 09:38:44;;;;;;;5.20;5.00;;;;;;;19.09;40.76;102420.00;4408139;32;20068;-73
2021/06/13 09:41:14;;;;;;;;;;;;;;;19.21;40.89;102415.72;4396230;32;20068;-72
2021/06/13 09:43:45;;;;;;;5.00;4.80;;;;;;;18.57;40.71;102328.22;4410042;32;19972;-72
2021/06/13 09:46:12;;;;;;;5.22;5.03;;;;;;;19.15;40.73;102422.28;4396191;32;20401;-71
2021/06/13 09:48:45;;;;;;;5.80;5.43;;;;;;;19.50;40.76;102352.66;4403744;32;20519;-70
2021/06/13 09:51:12;;;;;;;5.22;4.93;;;;;;;19.09;39.93;102239.87;4400119;32;20265;-72
2021/06/13 09:53:43;;;;;;;5.28;5.07;;;;;;;20.28;39.54;102416.06;4403793;32;20091;-72
2021/06/13 09:56:10;;;;;;;5.20;5.00;;;;;;;19.99;38.78;102418.81;4406170;32;20137;-71
2021/06/13 09:58:35;;;;;;;5.20;5.00;;;;;;;19.97;38.60;102407.41;4417505;32;20079;-71
2021/06/13 10:01:07;;;;;;;5.50;5.20;;;;;;;20.35;37.92;102414.69;4406096;32;20072;-71
2021/06/13 10:03:46;;;;;;;5.43;5.12;;;;;;;20.69;38.10;102402.66;4415427;32;20092;-73
2021/06/13 10:06:14;;;;;;;5.15;4.95;;;;;;;20.83;38.35;102409.72;4403876;32;20157;-72
2021/06/13 10:08:42;;;;;;;5.53;5.22;;;;;;;20.00;39.02;102315.72;4406553;32;20076;-72
2021/06/13 10:11:09;;;;;;;5.50;5.30;;;;;;;20.63;38.81;102410.22;4403920;32;20450;-72
2021/06/13 10:14:00;;;;;;;5.55;5.28;;;;;;;20.56;37.99;102409.72;4408638;32;20669;-71
2021/06/13 10:16:54;;;;;;;6.50;6.20;;;;;;;20.44;38.79;102407.88;4410431;32;20342;-71
2021/06/13 10:19:20;;;;;;;5.30;5.10;;;;;;;20.42;39.17;102408.00;4408017;32;20459;-71
2021/06/13 10:21:47;;;;;;;5.80;5.50;;;;;;;20.51;38.79;102393.19;4409303;32;20064;-71
2021/06/13 10:24:20;;;;;;;5.57;5.28;;;;;;;20.71;38.33;102406.06;4408363;32;20153;-71
2021/06/13 10:26:51;;;;;;;5.30;5.10;;;;;;;20.79;39.31;102410.88;4406474;32;20092;-71
2021/06/13 10:29:16;;;;;;;5.43;5.12;;;;;;;20.32;38.83;102413.06;4403353;32;20071;-72
2021/06/13 10:31:43;;;;;;;5.05;4.82;;;;;;;20.75;38.63;102392.50;4401682;32;20224;-70
2021/06/13 10:34:08;;;;;;;5.10;4.90;;;;;;;20.20;38.03;102299.25;4399071;32;20737;-72
2021/06/13 10:36:40;;;;;;;4.95;4.75;;;;;;;21.40;38.06;102394.22;4403068;32;20904;-72
2021/06/13 10:39:05;;;;;;;5.10;4.90;;;;;;;21.28;36.17;102385.25;4410587;32;20363;-71
2021/06/13 10:41:31;;;;;;;5.35;5.07;;;;;;;20.98;37.26;102409.63;4403240;32;20088;-71
2021/06/13 10:44:06;;;;;;;5.50;5.30;;;;;;;21.25;37.09;102406.84;4398846;32;20141;-71
2021/06/13 10:46:41;;;;;;;5.50;5.22;;;;;;;21.25;36.67;102402.34;4402843;32;20743;-72
2021/06/13 10:49:11;;;;;;;5.03;4.82;;;;;;;21.75;35.15;102404.19;4402062;32;20100;-71
2021/06/13 10:51:40;;;;;;;5.47;5.18;;;;;;;22.20;34.75;102409.81;4404044;32;20064;-71
2021/06/13 10:54:28;;;;;;;5.35;5.05;;;;;;;22.37;35.50;102398.75;4407992;32;20069;-71
2021/06/13 10:57:06;;;;;;;5.40;5.10;;;;;;;21.90;35.79;102384.38;4411481;32;20210;-71
2021/06/13 10:59:32;;;;;;;5.20;5.00;;;;;;;21.96;34.84;102394.62;4413353;32;20079;-72
2021/06/13 11:02:11;;;;;;;5.40;5.10;;;;;;;21.60;35.77;102400.84;4395001;32;20187;-71
2021/06/13 11:04:47;;;;;;;5.60;5.32;;;;;;;21.82;37.16;102403.66;4410164;32;20476;-72
2021/06/13 11:07:28;;;;;;;6.47;5.30;;;;;;;21.33;35.79;102393.81;4404943;32;20399;-71
2021/06/13 11:10:16;;;;;;;5.35;5.10;;;;;;;21.55;34.73;102398.50;4424390;32;20450;-71
2021/06/13 11:13:14;;;;;;;5.40;5.10;;;;;;;22.09;36.54;102389.19;4430341;32;20148;-72
2021/06/13 11:15:42;;;;;;;5.57;5.28;;;;;;;22.46;36.68;102390.00;4405590;32;20075;-72
2021/06/13 11:18:13;;;;;;;6.25;5.87;;;;;;;22.28;35.76;102388.72;4418836;32;20283;-72
2021/06/13 11:21:05;;;;;;;5.20;5.00;;;;;;;22.35;35.36;102383.75;4402858;32;20181;-71
2021/06/13 11:23:31;;;;;;;5.72;5.32;;;;;;;21.69;36.53;102376.13;4399044;32;20073;-71
2021/06/13 11:26:00;;;;;;;5.60;5.32;;;;;;;21.58;38.78;102309.25;4421972;32;20119;-71
2021/06/13 11:28:33;;;;;;;5.30;5.00;;;;;;;22.15;37.50;102380.75;4385969;32;20882;-71
2021/06/13 11:31:08;;;;;;;5.10;4.90;;;;;;;22.10;37.49;102381.06;4409130;32;20228;-71